sensor_id;sensor_type;location;lat;lon;timestamp;P1;durP1;ratioP1;P2;durP2;ratioP2
6626;SDS011;3349;49.830;8.748;2022-07-23T00:01:35;12.93;;;6.93;;
6626;SDS011;3349;49.830;8.748;2022-07-23T00:04:02;9.70;;;7.30;;
6626;SDS011;3349;49.830;8.748;2022-07-23T00:06:28;7.50;;;6.70;;
6626;SDS011;3349;49.830;8.748;2022-07-23T00:08:55;7.10;;;6.40;;
6626;SDS011;3349;49.830;8.748;2022-07-23T00:11:23;7.30;;;6.50;;
6626;SDS011;3349;49.830;8.748;2022-07-23T00:13:50;7.75;;;6.60;;
6626;SDS011;3349;49.830;8.748;2022-07-23T00:16:18;8.15;;;6.53;;
6626;SDS011;3349;49.830;8.748;2022-07-23T00:18:44;6.90;;;6.28;;
6626;SDS011;3349;49.830;8.748;2022-07-23T00:21:11;7.05;;;6.22;;
6626;SDS011;3349;49.830;8.748;2022-07-23T00:23:38;7.30;;;6.60;;
6626;SDS011;3349;49.830;8.748;2022-07-23T00:26:05;8.98;;;6.50;;
6626;SDS011;3349;49.830;8.748;2022-07-23T00:28:34;7.65;;;6.40;;
6626;SDS011;3349;49.830;8.748;2022-07-23T00:31:01;10.70;;;6.93;;
6626;SDS011;3349;49.830;8.748;2022-07-23T00:33:27;8.45;;;6.60;;
6626;SDS011;3349;49.830;8.748;2022-07-23T00:35:54;9.68;;;6.60;;
6626;SDS011;3349;49.830;8.748;2022-07-23T00:38:21;8.32;;;6.70;;
6626;SDS011;3349;49.830;8.748;2022-07-23T00:40:48;9.13;;;7.22;;
6626;SDS011;3349;49.830;8.748;2022-07-23T00:43:15;8.88;;;8.00;;
6626;SDS011;3349;49.830;8.748;2022-07-23T00:45:43;9.98;;;7.53;;
6626;SDS011;3349;49.830;8.748;2022-07-23T00:48:09;8.60;;;7.70;;
6626;SDS011;3349;49.830;8.748;2022-07-23T00:50:36;8.85;;;7.95;;
6626;SDS011;3349;49.830;8.748;2022-07-23T00:53:03;10.48;;;8.60;;
6626;SDS011;3349;49.830;8.748;2022-07-23T00:55:30;9.70;;;8.70;;
6626;SDS011;3349;49.830;8.748;2022-07-23T00:57:58;9.13;;;8.20;;
6626;SDS011;3349;49.830;8.748;2022-07-23T01:00:25;10.48;;;7.93;;
6626;SDS011;3349;49.830;8.748;2022-07-23T01:02:53;9.57;;;8.50;;
6626;SDS011;3349;49.830;8.748;2022-07-23T01:05:20;12.90;;;8.98;;
6626;SDS011;3349;49.830;8.748;2022-07-23T01:07:48;11.48;;;8.23;;
6626;SDS011;3349;49.830;8.748;2022-07-23T01:10:15;10.57;;;8.32;;
6626;SDS011;3349;49.830;8.748;2022-07-23T01:12:56;10.02;;;7.97;;
6626;SDS011;3349;49.830;8.748;2022-07-23T01:15:24;8.85;;;7.95;;
6626;SDS011;3349;49.830;8.748;2022-07-23T01:17:52;7.88;;;7.07;;
6626;SDS011;3349;49.830;8.748;2022-07-23T01:20:19;8.35;;;7.53;;
6626;SDS011;3349;49.830;8.748;2022-07-23T01:22:48;10.43;;;7.47;;
6626;SDS011;3349;49.830;8.748;2022-07-23T01:25:15;10.65;;;7.20;;
6626;SDS011;3349;49.830;8.748;2022-07-23T01:27:41;9.75;;;7.55;;
6626;SDS011;3349;49.830;8.748;2022-07-23T01:30:09;7.90;;;7.20;;
6626;SDS011;3349;49.830;8.748;2022-07-23T01:32:36;8.13;;;7.32;;
6626;SDS011;3349;49.830;8.748;2022-07-23T01:35:04;8.55;;;7.75;;
6626;SDS011;3349;49.830;8.748;2022-07-23T01:37:32;10.00;;;7.32;;
6626;SDS011;3349;49.830;8.748;2022-07-23T01:40:00;9.25;;;7.07;;
6626;SDS011;3349;49.830;8.748;2022-07-23T01:42:27;8.18;;;7.00;;
6626;SDS011;3349;49.830;8.748;2022-07-23T01:44:53;8.38;;;7.20;;
6626;SDS011;3349;49.830;8.748;2022-07-23T01:47:20;7.80;;;7.00;;
6626;SDS011;3349;49.830;8.748;2022-07-23T01:49:47;8.35;;;7.30;;
6626;SDS011;3349;49.830;8.748;2022-07-23T01:52:13;8.02;;;7.28;;
6626;SDS011;3349;49.830;8.748;2022-07-23T01:54:41;7.28;;;6.53;;
6626;SDS011;3349;49.830;8.748;2022-07-23T01:57:09;9.07;;;7.72;;
6626;SDS011;3349;49.830;8.748;2022-07-23T01:59:36;9.30;;;7.18;;
6626;SDS011;3349;49.830;8.748;2022-07-23T02:02:04;8.95;;;8.05;;
6626;SDS011;3349;49.830;8.748;2022-07-23T02:04:34;10.98;;;7.32;;
6626;SDS011;3349;49.830;8.748;2022-07-23T02:07:01;8.82;;;7.53;;
6626;SDS011;3349;49.830;8.748;2022-07-23T02:09:28;8.73;;;7.82;;
6626;SDS011;3349;49.830;8.748;2022-07-23T02:11:55;9.23;;;7.80;;
6626;SDS011;3349;49.830;8.748;2022-07-23T02:14:25;7.95;;;7.25;;
6626;SDS011;3349;49.830;8.748;2022-07-23T02:16:51;9.43;;;7.80;;
6626;SDS011;3349;49.830;8.748;2022-07-23T02:19:18;9.05;;;8.02;;
6626;SDS011;3349;49.830;8.748;2022-07-23T02:21:45;9.25;;;8.05;;
6626;SDS011;3349;49.830;8.748;2022-07-23T02:24:12;9.55;;;7.93;;
6626;SDS011;3349;49.830;8.748;2022-07-23T02:26:38;7.88;;;7.10;;
6626;SDS011;3349;49.830;8.748;2022-07-23T02:29:05;8.30;;;7.50;;
6626;SDS011;3349;49.830;8.748;2022-07-23T02:31:33;9.48;;;8.48;;
6626;SDS011;3349;49.830;8.748;2022-07-23T02:34:00;9.23;;;7.32;;
6626;SDS011;3349;49.830;8.748;2022-07-23T02:36:28;8.38;;;7.43;;
6626;SDS011;3349;49.830;8.748;2022-07-23T02:38:54;9.43;;;7.75;;
6626;SDS011;3349;49.830;8.748;2022-07-23T02:41:21;8.75;;;7.75;;
6626;SDS011;3349;49.830;8.748;2022-07-23T02:43:49;9.32;;;7.72;;
6626;SDS011;3349;49.830;8.748;2022-07-23T02:46:16;12.35;;;7.78;;
6626;SDS011;3349;49.830;8.748;2022-07-23T02:48:44;9.65;;;6.85;;
6626;SDS011;3349;49.830;8.748;2022-07-23T02:51:11;9.45;;;7.30;;
6626;SDS011;3349;49.830;8.748;2022-07-23T02:53:38;8.23;;;7.43;;
6626;SDS011;3349;49.830;8.748;2022-07-23T02:56:04;10.90;;;8.00;;
6626;SDS011;3349;49.830;8.748;2022-07-23T02:58:31;9.73;;;7.45;;
6626;SDS011;3349;49.830;8.748;2022-07-23T03:00:58;8.85;;;8.00;;
6626;SDS011;3349;49.830;8.748;2022-07-23T03:03:24;9.65;;;8.23;;
6626;SDS011;3349;49.830;8.748;2022-07-23T03:05:52;10.98;;;8.27;;
6626;SDS011;3349;49.830;8.748;2022-07-23T03:08:19;10.27;;;8.50;;
6626;SDS011;3349;49.830;8.748;2022-07-23T03:10:46;8.98;;;8.05;;
6626;SDS011;3349;49.830;8.748;2022-07-23T03:13:13;11.02;;;8.35;;
6626;SDS011;3349;49.830;8.748;2022-07-23T03:15:39;12.10;;;8.50;;
6626;SDS011;3349;49.830;8.748;2022-07-23T03:18:06;10.00;;;8.45;;
6626;SDS011;3349;49.830;8.748;2022-07-23T03:20:33;10.38;;;9.23;;
6626;SDS011;3349;49.830;8.748;2022-07-23T03:23:01;9.55;;;8.52;;
6626;SDS011;3349;49.830;8.748;2022-07-23T03:25:28;10.77;;;9.05;;
6626;SDS011;3349;49.830;8.748;2022-07-23T03:27:54;9.85;;;8.48;;
6626;SDS011;3349;49.830;8.748;2022-07-23T03:30:21;10.60;;;8.63;;
6626;SDS011;3349;49.830;8.748;2022-07-23T03:32:48;9.35;;;8.40;;
6626;SDS011;3349;49.830;8.748;2022-07-23T03:35:15;11.57;;;8.95;;
6626;SDS011;3349;49.830;8.748;2022-07-23T03:37:41;9.07;;;7.72;;
6626;SDS011;3349;49.830;8.748;2022-07-23T03:40:10;9.98;;;8.45;;
6626;SDS011;3349;49.830;8.748;2022-07-23T03:42:37;9.40;;;8.27;;
6626;SDS011;3349;49.830;8.748;2022-07-23T03:45:06;11.73;;;8.95;;
6626;SDS011;3349;49.830;8.748;2022-07-23T03:47:33;10.05;;;8.63;;
6626;SDS011;3349;49.830;8.748;2022-07-23T03:50:00;10.40;;;8.95;;
6626;SDS011;3349;49.830;8.748;2022-07-23T03:52:27;9.98;;;8.40;;
6626;SDS011;3349;49.830;8.748;2022-07-23T03:54:53;10.93;;;8.88;;
6626;SDS011;3349;49.830;8.748;2022-07-23T03:57:21;11.15;;;8.40;;
6626;SDS011;3349;49.830;8.748;2022-07-23T03:59:48;9.65;;;7.93;;
6626;SDS011;3349;49.830;8.748;2022-07-23T04:02:15;10.45;;;8.45;;
6626;SDS011;3349;49.830;8.748;2022-07-23T04:04:42;8.93;;;8.02;;
6626;SDS011;3349;49.830;8.748;2022-07-23T04:07:08;11.10;;;8.82;;
6626;SDS011;3349;49.830;8.748;2022-07-23T04:09:35;9.57;;;8.38;;
6626;SDS011;3349;49.830;8.748;2022-07-23T04:12:02;10.30;;;8.75;;
6626;SDS011;3349;49.830;8.748;2022-07-23T04:14:31;11.75;;;9.57;;
6626;SDS011;3349;49.830;8.748;2022-07-23T04:16:58;11.70;;;9.32;;
6626;SDS011;3349;49.830;8.748;2022-07-23T04:19:25;9.82;;;8.85;;
6626;SDS011;3349;49.830;8.748;2022-07-23T04:21:52;10.50;;;9.07;;
6626;SDS011;3349;49.830;8.748;2022-07-23T04:24:18;11.07;;;9.52;;
6626;SDS011;3349;49.830;8.748;2022-07-23T04:26:45;10.68;;;9.68;;
6626;SDS011;3349;49.830;8.748;2022-07-23T04:29:12;11.00;;;8.65;;
6626;SDS011;3349;49.830;8.748;2022-07-23T04:31:40;9.18;;;8.27;;
6626;SDS011;3349;49.830;8.748;2022-07-23T04:34:07;10.88;;;8.95;;
6626;SDS011;3349;49.830;8.748;2022-07-23T04:36:33;10.25;;;8.48;;
6626;SDS011;3349;49.830;8.748;2022-07-23T04:39:00;10.80;;;9.00;;
6626;SDS011;3349;49.830;8.748;2022-07-23T04:41:27;10.68;;;9.68;;
6626;SDS011;3349;49.830;8.748;2022-07-23T04:43:54;11.05;;;9.85;;
6626;SDS011;3349;49.830;8.748;2022-07-23T04:46:20;14.27;;;9.32;;
6626;SDS011;3349;49.830;8.748;2022-07-23T04:48:48;10.63;;;9.25;;
6626;SDS011;3349;49.830;8.748;2022-07-23T04:51:15;10.70;;;9.63;;
6626;SDS011;3349;49.830;8.748;2022-07-23T04:53:42;10.65;;;9.30;;
6626;SDS011;3349;49.830;8.748;2022-07-23T04:56:09;11.70;;;9.95;;
6626;SDS011;3349;49.830;8.748;2022-07-23T04:58:35;12.73;;;9.73;;
6626;SDS011;3349;49.830;8.748;2022-07-23T05:01:02;10.68;;;9.57;;
6626;SDS011;3349;49.830;8.748;2022-07-23T05:03:29;12.35;;;10.10;;
6626;SDS011;3349;49.830;8.748;2022-07-23T05:05:57;11.90;;;9.82;;
6626;SDS011;3349;49.830;8.748;2022-07-23T05:08:24;10.02;;;8.93;;
6626;SDS011;3349;49.830;8.748;2022-07-23T05:10:50;11.23;;;9.23;;
6626;SDS011;3349;49.830;8.748;2022-07-23T05:13:17;10.23;;;9.23;;
6626;SDS011;3349;49.830;8.748;2022-07-23T05:15:45;10.55;;;9.40;;
6626;SDS011;3349;49.830;8.748;2022-07-23T05:18:12;11.88;;;9.38;;
6626;SDS011;3349;49.830;8.748;2022-07-23T05:20:39;11.50;;;9.40;;
6626;SDS011;3349;49.830;8.748;2022-07-23T05:23:07;11.55;;;8.98;;
6626;SDS011;3349;49.830;8.748;2022-07-23T05:25:35;11.02;;;9.45;;
6626;SDS011;3349;49.830;8.748;2022-07-23T05:28:01;11.02;;;8.40;;
6626;SDS011;3349;49.830;8.748;2022-07-23T05:30:29;8.82;;;7.93;;
6626;SDS011;3349;49.830;8.748;2022-07-23T05:32:55;10.40;;;9.35;;
6626;SDS011;3349;49.830;8.748;2022-07-23T05:35:22;10.85;;;9.75;;
6626;SDS011;3349;49.830;8.748;2022-07-23T05:37:49;10.32;;;9.27;;
6626;SDS011;3349;49.830;8.748;2022-07-23T05:40:19;10.45;;;9.27;;
6626;SDS011;3349;49.830;8.748;2022-07-23T05:42:45;10.70;;;9.23;;
6626;SDS011;3349;49.830;8.748;2022-07-23T05:45:12;10.90;;;9.80;;
6626;SDS011;3349;49.830;8.748;2022-07-23T05:47:40;9.68;;;8.68;;
6626;SDS011;3349;49.830;8.748;2022-07-23T05:50:08;10.38;;;9.27;;
6626;SDS011;3349;49.830;8.748;2022-07-23T05:52:36;12.15;;;9.15;;
6626;SDS011;3349;49.830;8.748;2022-07-23T05:55:03;10.35;;;8.43;;
6626;SDS011;3349;49.830;8.748;2022-07-23T05:57:32;10.45;;;9.35;;
6626;SDS011;3349;49.830;8.748;2022-07-23T05:59:59;10.85;;;9.75;;
6626;SDS011;3349;49.830;8.748;2022-07-23T06:02:26;9.65;;;8.65;;
6626;SDS011;3349;49.830;8.748;2022-07-23T06:04:53;11.20;;;10.07;;
6626;SDS011;3349;49.830;8.748;2022-07-23T06:07:20;10.63;;;9.63;;
6626;SDS011;3349;49.830;8.748;2022-07-23T06:09:47;10.43;;;9.35;;
6626;SDS011;3349;49.830;8.748;2022-07-23T06:12:14;11.15;;;9.52;;
6626;SDS011;3349;49.830;8.748;2022-07-23T06:14:42;12.38;;;9.10;;
6626;SDS011;3349;49.830;8.748;2022-07-23T06:17:09;10.23;;;9.13;;
6626;SDS011;3349;49.830;8.748;2022-07-23T06:19:36;10.05;;;8.98;;
6626;SDS011;3349;49.830;8.748;2022-07-23T06:22:03;9.93;;;8.80;;
6626;SDS011;3349;49.830;8.748;2022-07-23T06:24:30;12.00;;;9.48;;
6626;SDS011;3349;49.830;8.748;2022-07-23T06:26:57;10.27;;;9.18;;
6626;SDS011;3349;49.830;8.748;2022-07-23T06:29:24;10.07;;;9.07;;
6626;SDS011;3349;49.830;8.748;2022-07-23T06:31:52;10.18;;;9.18;;
6626;SDS011;3349;49.830;8.748;2022-07-23T06:34:18;9.82;;;8.82;;
6626;SDS011;3349;49.830;8.748;2022-07-23T06:36:45;11.13;;;9.95;;
6626;SDS011;3349;49.830;8.748;2022-07-23T06:39:12;10.98;;;9.77;;
6626;SDS011;3349;49.830;8.748;2022-07-23T06:41:39;10.13;;;9.13;;
6626;SDS011;3349;49.830;8.748;2022-07-23T06:44:06;11.73;;;9.50;;
6626;SDS011;3349;49.830;8.748;2022-07-23T06:46:33;10.38;;;9.38;;
6626;SDS011;3349;49.830;8.748;2022-07-23T06:49:01;11.63;;;9.43;;
6626;SDS011;3349;49.830;8.748;2022-07-23T06:51:29;10.50;;;8.80;;
6626;SDS011;3349;49.830;8.748;2022-07-23T06:53:55;10.88;;;9.82;;
6626;SDS011;3349;49.830;8.748;2022-07-23T06:56:23;10.02;;;9.02;;
6626;SDS011;3349;49.830;8.748;2022-07-23T06:58:50;10.70;;;9.60;;
6626;SDS011;3349;49.830;8.748;2022-07-23T07:01:17;10.10;;;9.00;;
6626;SDS011;3349;49.830;8.748;2022-07-23T07:03:43;10.80;;;9.70;;
6626;SDS011;3349;49.830;8.748;2022-07-23T07:06:12;10.02;;;9.05;;
6626;SDS011;3349;49.830;8.748;2022-07-23T07:08:39;11.93;;;9.35;;
6626;SDS011;3349;49.830;8.748;2022-07-23T07:11:06;10.48;;;9.38;;
6626;SDS011;3349;49.830;8.748;2022-07-23T07:13:33;10.75;;;9.65;;
6626;SDS011;3349;49.830;8.748;2022-07-23T07:16:00;11.10;;;8.98;;
6626;SDS011;3349;49.830;8.748;2022-07-23T07:18:27;12.63;;;9.48;;
6626;SDS011;3349;49.830;8.748;2022-07-23T07:20:53;10.00;;;8.60;;
6626;SDS011;3349;49.830;8.748;2022-07-23T07:23:21;10.48;;;9.52;;
6626;SDS011;3349;49.830;8.748;2022-07-23T07:25:49;11.40;;;8.60;;
6626;SDS011;3349;49.830;8.748;2022-07-23T07:28:15;9.43;;;8.50;;
6626;SDS011;3349;49.830;8.748;2022-07-23T07:30:42;10.05;;;9.05;;
6626;SDS011;3349;49.830;8.748;2022-07-23T07:33:09;11.57;;;8.88;;
6626;SDS011;3349;49.830;8.748;2022-07-23T07:35:36;10.70;;;8.88;;
6626;SDS011;3349;49.830;8.748;2022-07-23T07:38:02;11.80;;;8.68;;
6626;SDS011;3349;49.830;8.748;2022-07-23T07:40:31;10.27;;;8.50;;
6626;SDS011;3349;49.830;8.748;2022-07-23T07:42:57;8.90;;;7.90;;
6626;SDS011;3349;49.830;8.748;2022-07-23T07:45:24;10.13;;;9.07;;
6626;SDS011;3349;49.830;8.748;2022-07-23T07:47:52;10.98;;;8.73;;
6626;SDS011;3349;49.830;8.748;2022-07-23T07:50:18;8.77;;;7.88;;
6626;SDS011;3349;49.830;8.748;2022-07-23T07:52:45;8.70;;;7.88;;
6626;SDS011;3349;49.830;8.748;2022-07-23T07:55:12;9.77;;;7.43;;
6626;SDS011;3349;49.830;8.748;2022-07-23T07:57:41;8.73;;;7.75;;
6626;SDS011;3349;49.830;8.748;2022-07-23T08:00:09;8.68;;;7.85;;
6626;SDS011;3349;49.830;8.748;2022-07-23T08:02:40;8.75;;;7.85;;
6626;SDS011;3349;49.830;8.748;2022-07-23T08:05:11;8.63;;;7.82;;
6626;SDS011;3349;49.830;8.748;2022-07-23T08:07:38;9.15;;;8.18;;
6626;SDS011;3349;49.830;8.748;2022-07-23T08:10:05;9.40;;;8.45;;
6626;SDS011;3349;49.830;8.748;2022-07-23T08:12:44;8.77;;;7.63;;
6626;SDS011;3349;49.830;8.748;2022-07-23T08:15:12;8.63;;;7.80;;
6626;SDS011;3349;49.830;8.748;2022-07-23T08:17:40;8.50;;;7.70;;
6626;SDS011;3349;49.830;8.748;2022-07-23T08:20:08;8.50;;;7.70;;
6626;SDS011;3349;49.830;8.748;2022-07-23T08:22:45;9.05;;;8.15;;
6626;SDS011;3349;49.830;8.748;2022-07-23T08:25:14;8.85;;;7.95;;
6626;SDS011;3349;49.830;8.748;2022-07-23T08:27:41;9.02;;;7.93;;
6626;SDS011;3349;49.830;8.748;2022-07-23T08:30:10;9.60;;;8.50;;
6626;SDS011;3349;49.830;8.748;2022-07-23T08:32:53;8.75;;;7.78;;
6626;SDS011;3349;49.830;8.748;2022-07-23T08:35:21;8.80;;;7.97;;
6626;SDS011;3349;49.830;8.748;2022-07-23T08:37:49;8.73;;;7.93;;
6626;SDS011;3349;49.830;8.748;2022-07-23T08:40:16;8.10;;;7.32;;
6626;SDS011;3349;49.830;8.748;2022-07-23T08:42:43;8.63;;;7.70;;
6626;SDS011;3349;49.830;8.748;2022-07-23T08:45:14;8.43;;;7.63;;
6626;SDS011;3349;49.830;8.748;2022-07-23T08:47:45;8.68;;;7.88;;
6626;SDS011;3349;49.830;8.748;2022-07-23T08:50:14;9.63;;;7.90;;
6626;SDS011;3349;49.830;8.748;2022-07-23T08:52:40;8.85;;;8.05;;
6626;SDS011;3349;49.830;8.748;2022-07-23T08:55:08;8.10;;;7.30;;
6626;SDS011;3349;49.830;8.748;2022-07-23T08:57:35;8.60;;;7.65;;
6626;SDS011;3349;49.830;8.748;2022-07-23T09:00:03;9.27;;;8.38;;
6626;SDS011;3349;49.830;8.748;2022-07-23T09:02:33;8.15;;;7.53;;
6626;SDS011;3349;49.830;8.748;2022-07-23T09:05:05;8.77;;;7.97;;
6626;SDS011;3349;49.830;8.748;2022-07-23T09:07:32;8.43;;;7.72;;
6626;SDS011;3349;49.830;8.748;2022-07-23T09:10:04;8.30;;;7.50;;
6626;SDS011;3349;49.830;8.748;2022-07-23T09:12:32;8.52;;;7.72;;
6626;SDS011;3349;49.830;8.748;2022-07-23T09:15:03;8.38;;;7.65;;
6626;SDS011;3349;49.830;8.748;2022-07-23T09:17:36;8.60;;;7.90;;
6626;SDS011;3349;49.830;8.748;2022-07-23T09:20:09;8.18;;;7.45;;
6626;SDS011;3349;49.830;8.748;2022-07-23T09:22:37;9.05;;;7.82;;
6626;SDS011;3349;49.830;8.748;2022-07-23T09:25:09;8.77;;;7.97;;
6626;SDS011;3349;49.830;8.748;2022-07-23T09:27:47;8.35;;;7.53;;
6626;SDS011;3349;49.830;8.748;2022-07-23T09:30:19;9.23;;;8.32;;
6626;SDS011;3349;49.830;8.748;2022-07-23T09:33:08;9.25;;;8.45;;
6626;SDS011;3349;49.830;8.748;2022-07-23T09:35:45;9.25;;;8.55;;
6626;SDS011;3349;49.830;8.748;2022-07-23T09:38:14;8.85;;;8.15;;
6626;SDS011;3349;49.830;8.748;2022-07-23T09:40:41;9.10;;;8.30;;
6626;SDS011;3349;49.830;8.748;2022-07-23T09:43:09;8.57;;;7.95;;
6626;SDS011;3349;49.830;8.748;2022-07-23T09:45:36;9.38;;;8.68;;
6626;SDS011;3349;49.830;8.748;2022-07-23T09:48:12;8.75;;;8.05;;
6626;SDS011;3349;49.830;8.748;2022-07-23T09:50:40;9.00;;;8.30;;
6626;SDS011;3349;49.830;8.748;2022-07-23T09:53:08;8.15;;;7.47;;
6626;SDS011;3349;49.830;8.748;2022-07-23T09:55:36;9.25;;;8.50;;
6626;SDS011;3349;49.830;8.748;2022-07-23T09:58:05;9.75;;;8.75;;
6626;SDS011;3349;49.830;8.748;2022-07-23T10:00:33;9.85;;;8.95;;
6626;SDS011;3349;49.830;8.748;2022-07-23T10:03:03;8.68;;;7.97;;
6626;SDS011;3349;49.830;8.748;2022-07-23T10:05:33;8.85;;;8.15;;
6626;SDS011;3349;49.830;8.748;2022-07-23T10:08:02;9.80;;;9.00;;
6626;SDS011;3349;49.830;8.748;2022-07-23T10:10:29;9.80;;;8.77;;
6626;SDS011;3349;49.830;8.748;2022-07-23T10:12:57;8.88;;;8.07;;
6626;SDS011;3349;49.830;8.748;2022-07-23T10:15:42;9.63;;;8.93;;
6626;SDS011;3349;49.830;8.748;2022-07-23T10:18:09;9.00;;;8.30;;
6626;SDS011;3349;49.830;8.748;2022-07-23T10:20:41;8.80;;;8.10;;
6626;SDS011;3349;49.830;8.748;2022-07-23T10:23:11;8.82;;;8.10;;
6626;SDS011;3349;49.830;8.748;2022-07-23T10:25:49;8.88;;;8.18;;
6626;SDS011;3349;49.830;8.748;2022-07-23T10:31:10;9.05;;;8.25;;
6626;SDS011;3349;49.830;8.748;2022-07-23T10:33:45;8.68;;;7.72;;
6626;SDS011;3349;49.830;8.748;2022-07-23T10:36:23;9.55;;;8.75;;
6626;SDS011;3349;49.830;8.748;2022-07-23T10:38:56;8.65;;;7.95;;
6626;SDS011;3349;49.830;8.748;2022-07-23T10:41:32;9.07;;;8.30;;
6626;SDS011;3349;49.830;8.748;2022-07-23T10:44:10;8.30;;;7.63;;
6626;SDS011;3349;49.830;8.748;2022-07-23T10:46:54;8.85;;;8.15;;
6626;SDS011;3349;49.830;8.748;2022-07-23T10:49:34;8.63;;;7.95;;
6626;SDS011;3349;49.830;8.748;2022-07-23T10:52:19;9.13;;;8.40;;
6626;SDS011;3349;49.830;8.748;2022-07-23T10:54:48;9.50;;;8.70;;
6626;SDS011;3349;49.830;8.748;2022-07-23T10:57:16;9.48;;;8.52;;
6626;SDS011;3349;49.830;8.748;2022-07-23T11:02:46;9.15;;;8.45;;
6626;SDS011;3349;49.830;8.748;2022-07-23T11:05:14;9.30;;;8.50;;
6626;SDS011;3349;49.830;8.748;2022-07-23T11:10:45;9.77;;;8.88;;
6626;SDS011;3349;49.830;8.748;2022-07-23T11:13:26;9.35;;;8.55;;
6626;SDS011;3349;49.830;8.748;2022-07-23T11:16:03;9.05;;;8.25;;
6626;SDS011;3349;49.830;8.748;2022-07-23T11:19:04;9.80;;;8.90;;
6626;SDS011;3349;49.830;8.748;2022-07-23T11:21:41;9.25;;;8.48;;
6626;SDS011;3349;49.830;8.748;2022-07-23T11:24:14;9.25;;;8.45;;
6626;SDS011;3349;49.830;8.748;2022-07-23T11:29:46;9.35;;;8.55;;
6626;SDS011;3349;49.830;8.748;2022-07-23T11:32:29;8.73;;;8.02;;
6626;SDS011;3349;49.830;8.748;2022-07-23T11:35:23;9.23;;;8.35;;
6626;SDS011;3349;49.830;8.748;2022-07-23T11:38:02;9.00;;;8.20;;
6626;SDS011;3349;49.830;8.748;2022-07-23T11:40:32;9.73;;;8.82;;
6626;SDS011;3349;49.830;8.748;2022-07-23T11:43:00;9.90;;;9.00;;
6626;SDS011;3349;49.830;8.748;2022-07-23T11:45:32;10.40;;;9.07;;
6626;SDS011;3349;49.830;8.748;2022-07-23T11:48:01;8.75;;;7.95;;
6626;SDS011;3349;49.830;8.748;2022-07-23T11:50:29;9.50;;;8.77;;
6626;SDS011;3349;49.830;8.748;2022-07-23T11:52:55;9.02;;;8.32;;
6626;SDS011;3349;49.830;8.748;2022-07-23T11:55:23;9.45;;;8.73;;
6626;SDS011;3349;49.830;8.748;2022-07-23T11:57:52;9.80;;;8.90;;
6626;SDS011;3349;49.830;8.748;2022-07-23T12:00:20;9.60;;;8.80;;
6626;SDS011;3349;49.830;8.748;2022-07-23T12:02:49;9.10;;;8.25;;
6626;SDS011;3349;49.830;8.748;2022-07-23T12:05:17;9.07;;;8.27;;
6626;SDS011;3349;49.830;8.748;2022-07-23T12:07:47;9.63;;;8.65;;
6626;SDS011;3349;49.830;8.748;2022-07-23T12:10:16;9.40;;;8.63;;
6626;SDS011;3349;49.830;8.748;2022-07-23T12:12:45;8.70;;;7.80;;
6626;SDS011;3349;49.830;8.748;2022-07-23T12:15:16;9.70;;;8.57;;
6626;SDS011;3349;49.830;8.748;2022-07-23T12:17:46;9.18;;;8.27;;
6626;SDS011;3349;49.830;8.748;2022-07-23T12:20:14;10.77;;;8.68;;
6626;SDS011;3349;49.830;8.748;2022-07-23T12:22:43;9.48;;;8.50;;
6626;SDS011;3349;49.830;8.748;2022-07-23T12:25:15;9.25;;;8.20;;
6626;SDS011;3349;49.830;8.748;2022-07-23T12:27:43;9.32;;;8.43;;
6626;SDS011;3349;49.830;8.748;2022-07-23T12:30:22;9.85;;;8.95;;
6626;SDS011;3349;49.830;8.748;2022-07-23T12:32:50;9.85;;;8.38;;
6626;SDS011;3349;49.830;8.748;2022-07-23T12:35:18;8.60;;;7.82;;
6626;SDS011;3349;49.830;8.748;2022-07-23T12:37:47;8.95;;;8.15;;
6626;SDS011;3349;49.830;8.748;2022-07-23T12:40:24;8.63;;;7.82;;
6626;SDS011;3349;49.830;8.748;2022-07-23T12:42:53;8.88;;;8.10;;
6626;SDS011;3349;49.830;8.748;2022-07-23T12:45:24;9.43;;;8.38;;
6626;SDS011;3349;49.830;8.748;2022-07-23T12:48:02;9.20;;;8.30;;
6626;SDS011;3349;49.830;8.748;2022-07-23T12:50:36;8.93;;;8.15;;
6626;SDS011;3349;49.830;8.748;2022-07-23T12:53:05;8.60;;;7.90;;
6626;SDS011;3349;49.830;8.748;2022-07-23T12:55:33;8.98;;;8.27;;
6626;SDS011;3349;49.830;8.748;2022-07-23T12:58:04;8.63;;;7.93;;
6626;SDS011;3349;49.830;8.748;2022-07-23T13:03:26;8.93;;;8.13;;
6626;SDS011;3349;49.830;8.748;2022-07-23T13:05:59;9.30;;;8.32;;
6626;SDS011;3349;49.830;8.748;2022-07-23T13:08:27;8.70;;;7.90;;
6626;SDS011;3349;49.830;8.748;2022-07-23T13:10:55;9.00;;;8.18;;
6626;SDS011;3349;49.830;8.748;2022-07-23T13:13:23;9.20;;;8.45;;
6626;SDS011;3349;49.830;8.748;2022-07-23T13:15:53;9.02;;;8.23;;
6626;SDS011;3349;49.830;8.748;2022-07-23T13:18:21;9.35;;;8.48;;
6626;SDS011;3349;49.830;8.748;2022-07-23T13:20:48;9.25;;;8.45;;
6626;SDS011;3349;49.830;8.748;2022-07-23T13:23:16;9.82;;;8.93;;
6626;SDS011;3349;49.830;8.748;2022-07-23T13:25:44;9.60;;;8.23;;
6626;SDS011;3349;49.830;8.748;2022-07-23T13:28:11;9.10;;;8.30;;
6626;SDS011;3349;49.830;8.748;2022-07-23T13:30:38;9.45;;;8.55;;
6626;SDS011;3349;49.830;8.748;2022-07-23T13:33:07;9.25;;;8.35;;
6626;SDS011;3349;49.830;8.748;2022-07-23T13:35:34;8.98;;;8.18;;
6626;SDS011;3349;49.830;8.748;2022-07-23T13:38:02;10.27;;;9.27;;
6626;SDS011;3349;49.830;8.748;2022-07-23T13:40:29;9.45;;;8.65;;
6626;SDS011;3349;49.830;8.748;2022-07-23T13:42:55;9.15;;;8.25;;
6626;SDS011;3349;49.830;8.748;2022-07-23T13:45:22;10.20;;;9.25;;
6626;SDS011;3349;49.830;8.748;2022-07-23T13:47:49;9.45;;;8.55;;
6626;SDS011;3349;49.830;8.748;2022-07-23T13:50:17;9.40;;;8.50;;
6626;SDS011;3349;49.830;8.748;2022-07-23T13:52:44;10.68;;;9.77;;
6626;SDS011;3349;49.830;8.748;2022-07-23T13:55:11;9.23;;;8.43;;
6626;SDS011;3349;49.830;8.748;2022-07-23T13:57:38;9.20;;;8.30;;
6626;SDS011;3349;49.830;8.748;2022-07-23T14:00:06;9.30;;;8.32;;
6626;SDS011;3349;49.830;8.748;2022-07-23T14:02:35;9.43;;;8.52;;
6626;SDS011;3349;49.830;8.748;2022-07-23T14:05:03;16.17;;;14.57;;
6626;SDS011;3349;49.830;8.748;2022-07-23T14:07:31;8.90;;;8.10;;
6626;SDS011;3349;49.830;8.748;2022-07-23T14:09:58;9.18;;;8.30;;
6626;SDS011;3349;49.830;8.748;2022-07-23T14:12:25;11.10;;;9.90;;
6626;SDS011;3349;49.830;8.748;2022-07-23T14:14:52;8.80;;;8.02;;
6626;SDS011;3349;49.830;8.748;2022-07-23T14:17:19;9.10;;;8.25;;
6626;SDS011;3349;49.830;8.748;2022-07-23T14:19:46;9.20;;;8.30;;
6626;SDS011;3349;49.830;8.748;2022-07-23T14:22:13;11.52;;;7.80;;
6626;SDS011;3349;49.830;8.748;2022-07-23T14:24:41;9.05;;;8.25;;
6626;SDS011;3349;49.830;8.748;2022-07-23T14:27:08;8.73;;;7.78;;
6626;SDS011;3349;49.830;8.748;2022-07-23T14:29:35;8.57;;;7.75;;
6626;SDS011;3349;49.830;8.748;2022-07-23T14:32:02;9.35;;;8.27;;
6626;SDS011;3349;49.830;8.748;2022-07-23T14:34:29;9.02;;;8.20;;
6626;SDS011;3349;49.830;8.748;2022-07-23T14:36:57;9.07;;;8.27;;
6626;SDS011;3349;49.830;8.748;2022-07-23T14:39:24;9.02;;;8.15;;
6626;SDS011;3349;49.830;8.748;2022-07-23T14:41:52;9.80;;;8.88;;
6626;SDS011;3349;49.830;8.748;2022-07-23T14:44:19;8.98;;;8.18;;
6626;SDS011;3349;49.830;8.748;2022-07-23T14:46:46;8.77;;;7.93;;
6626;SDS011;3349;49.830;8.748;2022-07-23T14:49:13;9.02;;;8.23;;
6626;SDS011;3349;49.830;8.748;2022-07-23T14:51:40;9.07;;;8.20;;
6626;SDS011;3349;49.830;8.748;2022-07-23T14:54:08;10.20;;;8.00;;
6626;SDS011;3349;49.830;8.748;2022-07-23T14:56:35;8.70;;;8.00;;
6626;SDS011;3349;49.830;8.748;2022-07-23T14:59:04;8.52;;;7.72;;
6626;SDS011;3349;49.830;8.748;2022-07-23T15:01:31;8.43;;;7.72;;
6626;SDS011;3349;49.830;8.748;2022-07-23T15:03:58;9.80;;;8.80;;
6626;SDS011;3349;49.830;8.748;2022-07-23T15:06:25;9.07;;;8.38;;
6626;SDS011;3349;49.830;8.748;2022-07-23T15:08:51;7.40;;;6.70;;
6626;SDS011;3349;49.830;8.748;2022-07-23T15:11:18;8.50;;;7.43;;
6626;SDS011;3349;49.830;8.748;2022-07-23T15:13:45;7.78;;;7.18;;
6626;SDS011;3349;49.830;8.748;2022-07-23T15:16:13;8.05;;;7.35;;
6626;SDS011;3349;49.830;8.748;2022-07-23T15:18:40;9.43;;;8.13;;
6626;SDS011;3349;49.830;8.748;2022-07-23T15:21:07;9.25;;;8.45;;
6626;SDS011;3349;49.830;8.748;2022-07-23T15:23:33;11.23;;;10.23;;
6626;SDS011;3349;49.830;8.748;2022-07-23T15:26:01;15.57;;;13.38;;
6626;SDS011;3349;49.830;8.748;2022-07-23T15:28:28;11.25;;;9.02;;
6626;SDS011;3349;49.830;8.748;2022-07-23T15:30:55;8.55;;;7.18;;
6626;SDS011;3349;49.830;8.748;2022-07-23T15:33:23;8.73;;;7.93;;